Time;durP1;ratioP1;P1;durP2;ratioP2;P2;SDS_P1;SDS_P2;PMS_P1;PMS_P2;Temp;Humidity;BMP_temperature;BMP_pressure;BME280_temperature;BME280_humidity;BME280_pressure;Samples;Min_cycle;Max_cycle;Signal;HPM_P1;HPM_P2
2022/11/09 10:49:19;;;;;;;3.60;0.70;;;14.80;99.90;;;;;;4820280;23;20824;-70
2022/11/09 10:51:46;;;;;;;1.53;0.40;;;14.90;99.90;;;;;;4916622;29;20210;-71
2022/11/09 10:54:20;;;;;;;3.00;0.50;;;15.10;99.90;;;;;;4916801;29;20240;-71
2022/11/09 10:56:49;;;;;;;2.53;0.40;;;15.00;99.90;;;;;;4916948;29;20251;-70
2022/11/09 10:59:42;;;;;;;3.73;0.53;;;15.00;99.90;;;;;;4916835;29;20214;-71
2022/11/09 11:02:42;;;;;;;3.20;0.70;;;15.00;99.90;;;;;;4916566;29;20213;-72
2022/11/09 11:05:26;;;;;;;0.90;0.33;;;14.60;99.90;;;;;;4916453;29;20771;-71
2022/11/09 11:07:53;;;;;;;5.13;0.60;;;14.60;99.90;;;;;;4916717;29;20685;-71
2022/11/09 11:10:21;;;;;;;1.77;0.57;;;14.50;99.90;;;;;;4916453;29;20205;-70
2022/11/09 11:13:09;;;;;;;0.50;0.50;;;14.40;99.90;;;;;;4916718;29;20213;-72
2022/11/09 11:15:39;;;;;;;0.80;0.40;;;14.40;99.90;;;;;;4916187;29;20245;-71
2022/11/09 11:18:15;;;;;;;1.70;0.43;;;14.50;99.90;;;;;;4916293;29;20740;-70
2022/11/09 11:20:43;;;;;;;0.97;0.40;;;14.60;99.90;;;;;;4916377;29;20209;-70
2022/11/09 11:23:13;;;;;;;2.60;0.40;;;14.70;99.90;;;;;;4916423;29;20219;-71
2022/11/09 11:25:58;;;;;;;2.73;0.60;;;14.80;99.90;;;;;;4916309;29;20233;-71
2022/11/09 11:28:31;;;;;;;2.97;0.70;;;14.90;99.90;;;;;;4916631;29;20310;-71
2022/11/09 11:30:58;;;;;;;3.23;0.70;;;15.00;99.90;;;;;;4916396;29;20205;-71
2022/11/09 11:33:25;;;;;;;2.00;0.40;;;15.10;99.90;;;;;;4916362;29;20219;-71
2022/11/09 11:35:59;;;;;;;4.90;0.50;;;14.90;99.90;;;;;;4919075;29;20743;-71
2022/11/09 11:38:31;;;;;;;4.07;0.60;;;14.80;99.90;;;;;;4919980;29;20214;-70
2022/11/09 11:41:08;;;;;;;4.07;0.70;;;14.30;99.90;;;;;;4919568;29;20572;-71
2022/11/09 11:43:45;;;;;;;2.63;0.60;;;14.10;99.90;;;;;;4919690;29;20216;-71
2022/11/09 11:46:22;;;;;;;6.53;0.50;;;14.10;99.90;;;;;;4919863;29;20237;-70
2022/11/09 11:49:17;;;;;;;3.53;0.90;;;14.10;99.90;;;;;;4919737;29;20213;-70
2022/11/09 11:51:54;;;;;;;3.33;0.60;;;14.20;99.90;;;;;;4919634;29;20213;-71
2022/11/09 11:54:28;;;;;;;2.67;0.70;;;14.20;99.90;;;;;;4919558;29;20237;-70
2022/11/09 11:57:02;;;;;;;2.37;0.60;;;14.20;99.90;;;;;;4919299;29;20669;-70
2022/11/09 11:59:52;;;;;;;4.17;0.63;;;14.20;99.90;;;;;;4919568;29;20677;-71
2022/11/09 12:02:57;;;;;;;3.43;0.50;;;14.40;99.90;;;;;;4919490;29;20664;-70
2022/11/09 12:05:44;;;;;;;3.17;0.57;;;14.40;99.90;;;;;;4919527;29;20229;-70
2022/11/09 12:08:20;;;;;;;3.47;0.47;;;14.50;99.90;;;;;;4919563;29;20213;-71
2022/11/09 12:10:56;;;;;;;1.83;0.50;;;14.50;99.90;;;;;;4915804;29;20248;-71
2022/11/09 12:13:42;;;;;;;5.03;0.57;;;14.50;99.90;;;;;;4907286;29;20213;-71
2022/11/09 12:16:15;;;;;;;1.63;0.40;;;14.40;99.90;;;;;;4906434;29;20234;-70
2022/11/09 12:18:53;;;;;;;4.37;0.50;;;14.40;99.90;;;;;;4901231;29;20214;-71
2022/11/09 12:21:28;;;;;;;2.53;0.67;;;14.40;99.90;;;;;;4906639;29;20229;-71
2022/11/09 12:24:16;;;;;;;2.00;0.40;;;14.40;99.90;;;;;;4915740;29;20205;-70
2022/11/09 12:26:54;;;;;;;3.43;0.60;;;14.20;99.90;;;;;;4907147;29;20701;-71
2022/11/09 12:29:23;;;;;;;2.20;0.50;;;13.90;99.90;;;;;;4910307;29;20605;-70
2022/11/09 12:32:02;;;;;;;3.40;0.40;;;13.70;99.90;;;;;;4904018;29;20261;-71
2022/11/09 12:34:34;;;;;;;1.37;0.40;;;13.70;99.90;;;;;;4911837;29;20700;-70
2022/11/09 12:37:03;;;;;;;2.13;0.90;;;13.70;99.90;;;;;;4904031;29;20566;-71
2022/11/09 12:39:36;;;;;;;2.63;0.40;;;13.50;99.90;;;;;;4909123;29;20229;-71
2022/11/09 12:42:06;;;;;;;4.80;0.43;;;13.30;99.90;;;;;;4903567;29;20211;-71
2022/11/09 12:44:37;;;;;;;2.97;0.57;;;13.20;99.90;;;;;;4905984;29;20211;-71
2022/11/09 12:47:10;;;;;;;3.43;0.50;;;13.10;99.90;;;;;;4901641;29;20585;-71
2022/11/09 12:49:39;;;;;;;1.57;0.63;;;13.00;99.90;;;;;;4905906;29;20557;-71
2022/11/09 12:52:07;;;;;;;1.53;0.40;;;12.90;99.90;;;;;;4912359;29;20214;-70
2022/11/09 12:54:36;;;;;;;3.63;0.83;;;12.90;99.90;;;;;;4901170;29;20600;-71
2022/11/09 12:57:06;;;;;;;1.80;0.70;;;12.80;99.90;;;;;;4901622;29;20237;-74
2022/11/09 12:59:44;;;;;;;2.73;0.60;;;12.80;99.90;;;;;;4909873;29;20210;-70
2022/11/09 13:02:24;;;;;;;1.73;0.60;;;12.70;99.90;;;;;;4915095;29;20811;-71
2022/11/09 13:04:56;;;;;;;2.53;1.03;;;12.80;99.90;;;;;;4911594;29;20572;-72
2022/11/09 13:07:45;;;;;;;2.00;0.57;;;12.80;99.90;;;;;;4914930;29;20216;-71
2022/11/09 13:10:26;;;;;;;1.90;0.60;;;12.90;99.90;;;;;;4908603;29;20265;-71
2022/11/09 13:13:03;;;;;;;1.00;0.63;;;12.80;99.90;;;;;;4906901;29;20209;-71
2022/11/09 13:15:31;;;;;;;2.57;0.50;;;12.70;99.90;;;;;;4910676;29;20241;-70
2022/11/09 13:18:04;;;;;;;2.60;0.70;;;12.80;99.90;;;;;;4914657;29;20568;-72
2022/11/09 13:20:43;;;;;;;1.93;0.70;;;12.90;99.90;;;;;;4910548;29;20210;-71
2022/11/09 13:23:34;;;;;;;2.73;0.60;;;13.10;99.90;;;;;;4908164;29;20218;-72
2022/11/09 13:26:03;;;;;;;3.07;1.27;;;13.20;99.90;;;;;;4908756;29;20344;-70
2022/11/09 13:29:09;;;;;;;3.43;0.60;;;13.20;99.90;;;;;;4912881;29;20225;-72
2022/11/09 13:32:02;;;;;;;1.23;0.60;;;13.20;99.90;;;;;;4916517;29;20573;-72
2022/11/09 13:34:46;;;;;;;3.57;0.70;;;13.40;99.90;;;;;;4912628;29;20245;-71
2022/11/09 13:37:36;;;;;;;1.97;0.80;;;13.40;99.90;;;;;;4906681;29;20273;-71
2022/11/09 13:40:41;;;;;;;5.57;0.90;;;13.40;99.90;;;;;;4898306;29;20666;-72
2022/11/09 13:43:31;;;;;;;3.03;0.70;;;13.40;99.90;;;;;;4898544;29;20678;-72
2022/11/09 13:46:00;;;;;;;5.10;0.80;;;13.50;99.90;;;;;;4894462;29;20241;-73
2022/11/09 13:48:33;;;;;;;3.70;0.70;;;13.60;99.90;;;;;;4898488;29;20214;-72
2022/11/09 13:51:02;;;;;;;6.47;1.30;;;13.60;99.90;;;;;;4898246;29;20217;-70
2022/11/09 13:53:31;;;;;;;2.83;0.60;;;13.40;99.90;;;;;;4898369;29;20693;-72
2022/11/09 13:55:58;;;;;;;1.57;0.40;;;13.40;99.90;;;;;;4898270;29;20587;-69
2022/11/09 13:58:30;;;;;;;3.30;0.73;;;13.50;99.90;;;;;;4898322;29;20210;-71
2022/11/09 14:00:58;;;;;;;2.40;0.60;;;13.50;99.90;;;;;;4898479;29;20212;-71
2022/11/09 14:03:27;;;;;;;2.17;0.50;;;13.50;99.90;;;;;;4898192;29;20206;-70
2022/11/09 14:05:57;;;;;;;8.83;0.90;;;13.50;99.90;;;;;;4897891;29;20590;-72
2022/11/09 14:08:25;;;;;;;4.53;0.50;;;13.50;99.90;;;;;;4898114;29;20210;-70
2022/11/09 14:11:05;;;;;;;2.93;0.70;;;13.50;99.90;;;;;;4898259;29;20216;-73
2022/11/09 14:13:56;;;;;;;1.37;0.60;;;13.50;99.90;;;;;;4898305;29;20220;-72
2022/11/09 14:16:33;;;;;;;2.40;0.67;;;13.60;99.90;;;;;;4897929;29;20238;-71
2022/11/09 14:19:11;;;;;;;2.37;0.73;;;13.60;99.90;;;;;;4898259;29;20573;-70
2022/11/09 14:21:43;;;;;;;3.33;0.70;;;13.50;99.90;;;;;;4897962;29;20242;-70
2022/11/09 14:24:17;;;;;;;6.70;0.70;;;13.50;99.90;;;;;;4897261;29;20732;-70
2022/11/09 14:27:11;;;;;;;1.87;0.60;;;13.30;99.90;;;;;;4897247;29;20230;-72
2022/11/09 14:29:49;;;;;;;2.10;0.53;;;13.30;99.90;;;;;;4897535;29;20264;-72
2022/11/09 14:32:27;;;;;;;3.67;0.67;;;13.30;99.90;;;;;;4897832;29;20220;-71
2022/11/09 14:35:09;;;;;;;2.10;0.60;;;13.10;99.90;;;;;;4897514;29;20344;-71
2022/11/09 14:37:36;;;;;;;3.77;0.50;;;13.20;99.90;;;;;;4897738;29;20210;-69
2022/11/09 14:40:03;;;;;;;1.03;0.40;;;13.10;99.90;;;;;;4898118;29;20210;-70
2022/11/09 14:42:31;;;;;;;0.80;0.37;;;13.10;99.90;;;;;;4897532;29;20305;-71
2022/11/09 14:44:58;;;;;;;1.27;0.50;;;13.20;99.90;;;;;;4897874;29;20270;-70
2022/11/09 14:47:31;;;;;;;1.20;0.47;;;13.30;99.90;;;;;;4897081;29;20217;-69
2022/11/09 14:49:59;;;;;;;2.20;0.40;;;13.20;99.90;;;;;;4897294;29;20674;-71
2022/11/09 14:52:29;;;;;;;1.40;0.30;;;13.30;99.90;;;;;;4913648;29;20565;-71
2022/11/09 14:54:56;;;;;;;1.17;0.47;;;13.30;99.90;;;;;;4908720;29;20234;-70
2022/11/09 14:57:24;;;;;;;1.07;0.40;;;13.30;99.90;;;;;;4896869;29;20213;-70
2022/11/09 14:59:51;;;;;;;0.97;0.30;;;13.20;99.90;;;;;;4896977;29;20217;-69
2022/11/09 15:02:20;;;;;;;4.37;1.13;;;13.10;99.90;;;;;;4896696;29;20218;-71
2022/11/09 15:04:56;;;;;;;4.10;0.40;;;13.10;99.90;;;;;;4896904;29;20210;-71
2022/11/09 15:07:27;;;;;;;2.87;1.00;;;13.10;99.90;;;;;;4897266;29;20220;-70
2022/11/09 15:09:57;;;;;;;1.60;0.53;;;13.10;99.90;;;;;;4898926;29;20221;-70
2022/11/09 15:12:24;;;;;;;3.97;0.90;;;13.10;99.90;;;;;;4901082;29;20214;-70
2022/11/09 15:14:53;;;;;;;1.30;0.47;;;13.00;99.90;;;;;;4900127;29;20238;-71
2022/11/09 15:17:25;;;;;;;1.27;0.50;;;13.00;99.90;;;;;;4900724;29;20327;-70
2022/11/09 15:19:55;;;;;;;3.23;0.90;;;12.90;99.90;;;;;;4900267;29;20210;-71
2022/11/09 15:22:48;;;;;;;2.13;0.50;;;12.90;99.90;;;;;;4901688;29;20673;-70
2022/11/09 15:25:27;;;;;;;5.10;0.90;;;12.80;99.90;;;;;;4919054;29;20284;-71
2022/11/09 15:28:14;;;;;;;5.93;0.70;;;12.90;99.90;;;;;;4918674;29;20220;-70
2022/11/09 15:30:43;;;;;;;3.73;0.60;;;12.90;99.90;;;;;;4919767;29;20220;-70
2022/11/09 15:33:24;;;;;;;2.93;0.70;;;12.90;99.90;;;;;;4919607;29;20209;-71
2022/11/09 15:35:55;;;;;;;1.10;0.67;;;13.00;99.90;;;;;;4919637;29;20249;-70
2022/11/09 15:38:35;;;;;;;2.73;0.70;;;12.90;99.90;;;;;;4919872;29;20304;-71
2022/11/09 15:41:03;;;;;;;0.80;0.43;;;13.00;99.90;;;;;;4919365;29;20212;-70
2022/11/09 15:43:30;;;;;;;1.43;0.70;;;13.00;99.90;;;;;;4919492;29;20221;-70
2022/11/09 15:45:59;;;;;;;2.33;1.00;;;12.90;99.90;;;;;;4919257;29;20241;-71
2022/11/09 15:48:25;;;;;;;2.60;0.53;;;12.90;99.90;;;;;;4919676;29;20300;-71
2022/11/09 15:50:54;;;;;;;3.47;0.73;;;12.80;99.90;;;;;;4919307;29;20588;-71
2022/11/09 15:53:21;;;;;;;2.57;0.60;;;12.70;99.90;;;;;;4919492;29;20238;-72
2022/11/09 15:55:48;;;;;;;1.20;0.60;;;12.60;99.90;;;;;;4919004;29;20245;-71
2022/11/09 15:58:17;;;;;;;3.43;0.73;;;12.60;99.90;;;;;;4919123;29;20689;-72
2022/11/09 16:00:44;;;;;;;2.00;0.63;;;12.50;99.90;;;;;;4919689;29;20554;-71
2022/11/09 16:03:12;;;;;;;5.20;0.80;;;12.40;99.90;;;;;;4919437;29;20217;-71
2022/11/09 16:05:39;;;;;;;1.90;0.70;;;12.30;99.90;;;;;;4919303;29;20231;-70
2022/11/09 16:08:07;;;;;;;2.50;0.67;;;12.20;99.90;;;;;;4919306;29;20669;-70
2022/11/09 16:10:36;;;;;;;3.30;0.60;;;12.20;99.90;;;;;;4919068;29;20265;-71
2022/11/09 16:13:04;;;;;;;5.20;0.80;;;12.10;99.90;;;;;;4918802;29;20301;-70
2022/11/09 16:15:31;;;;;;;2.93;1.20;;;12.00;99.90;;;;;;4918655;29;20240;-71
2022/11/09 16:17:58;;;;;;;3.30;1.00;;;12.00;99.90;;;;;;4918721;29;20597;-70
2022/11/09 16:20:24;;;;;;;4.00;1.13;;;12.00;99.90;;;;;;4918062;29;20213;-70
2022/11/09 16:22:51;;;;;;;3.90;1.40;;;11.90;99.90;;;;;;4918307;29;20236;-70
2022/11/09 16:25:19;;;;;;;4.73;1.60;;;11.80;99.90;;;;;;4918794;29;20236;-72
2022/11/09 16:27:46;;;;;;;3.17;1.67;;;11.80;99.90;;;;;;4918776;29;20211;-70
2022/11/09 16:30:14;;;;;;;3.20;1.00;;;11.70;99.90;;;;;;4918745;29;20640;-69
2022/11/09 16:32:41;;;;;;;4.50;0.90;;;11.70;99.90;;;;;;4918281;29;20213;-70
2022/11/09 16:35:09;;;;;;;2.43;1.37;;;11.60;99.90;;;;;;4917052;29;20225;-69
2022/11/09 16:37:39;;;;;;;3.40;1.40;;;11.60;99.90;;;;;;4917245;29;20221;-70
2022/11/09 16:40:10;;;;;;;4.33;2.20;;;11.60;99.90;;;;;;4917036;29;20630;-69
2022/11/09 16:42:38;;;;;;;3.60;1.57;;;11.60;99.90;;;;;;4918787;29;20261;-70
2022/11/09 16:45:08;;;;;;;3.27;1.50;;;11.60;99.90;;;;;;4919253;29;20240;-71
2022/11/09 16:47:39;;;;;;;5.60;1.40;;;11.70;99.90;;;;;;4917368;29;20227;-70
2022/11/09 16:50:07;;;;;;;6.20;1.37;;;11.60;99.90;;;;;;4916592;29;20213;-70
2022/11/09 16:52:34;;;;;;;4.57;1.67;;;11.60;99.90;;;;;;4916434;29;20560;-70
2022/11/09 16:55:01;;;;;;;3.90;1.70;;;11.60;99.90;;;;;;4916532;29;20245;-70
2022/11/09 16:57:28;;;;;;;3.50;1.40;;;11.60;99.90;;;;;;4916303;29;20198;-69
2022/11/09 16:59:56;;;;;;;4.90;1.00;;;11.70;99.90;;;;;;4916131;29;20209;-69
2022/11/09 17:02:24;;;;;;;3.47;1.33;;;11.70;99.90;;;;;;4916706;29;20202;-69
2022/11/09 17:04:51;;;;;;;4.07;1.37;;;11.70;99.90;;;;;;4916394;29;20282;-70
2022/11/09 17:07:18;;;;;;;4.17;1.37;;;11.60;99.90;;;;;;4916398;29;20206;-69
2022/11/09 17:09:45;;;;;;;4.87;1.13;;;11.60;99.90;;;;;;4916580;29;20232;-70
2022/11/09 17:12:12;;;;;;;2.23;1.03;;;11.60;99.90;;;;;;4916525;29;20209;-70
2022/11/09 17:14:39;;;;;;;6.20;1.23;;;11.60;99.90;;;;;;4913852;29;20237;-69
2022/11/09 17:17:07;;;;;;;4.67;0.97;;;11.50;99.90;;;;;;4916261;29;20237;-70
2022/11/09 17:19:35;;;;;;;4.47;1.00;;;11.50;99.90;;;;;;4915910;29;20212;-70
2022/11/09 17:22:03;;;;;;;4.97;1.00;;;11.50;99.90;;;;;;4915959;29;20217;-70
2022/11/09 17:24:32;;;;;;;3.97;1.23;;;11.40;99.90;;;;;;4916286;29;20209;-70
2022/11/09 17:26:59;;;;;;;4.53;1.17;;;11.40;99.90;;;;;;4913501;29;20277;-70
2022/11/09 17:29:26;;;;;;;5.50;1.23;;;11.30;99.90;;;;;;4916047;29;20285;-70
2022/11/09 17:31:53;;;;;;;5.53;1.17;;;11.30;99.90;;;;;;4915683;29;20701;-70
2022/11/09 17:34:21;;;;;;;2.77;1.10;;;11.40;99.90;;;;;;4915952;29;20208;-70
2022/11/09 17:36:48;;;;;;;2.00;1.00;;;11.40;99.90;;;;;;4915955;29;20237;-70
2022/11/09 17:39:14;;;;;;;2.87;0.80;;;11.40;99.90;;;;;;4916074;29;20205;-70
2022/11/09 17:41:41;;;;;;;5.60;1.13;;;11.40;99.90;;;;;;4916218;29;20202;-70
2022/11/09 17:44:08;;;;;;;2.53;0.77;;;11.40;99.90;;;;;;4916040;29;20202;-70
2022/11/09 17:46:35;;;;;;;2.50;1.10;;;11.40;99.90;;;;;;4915592;29;20708;-69
2022/11/09 17:49:01;;;;;;;6.10;1.50;;;11.30;99.90;;;;;;4917011;29;20580;-70
2022/11/09 17:51:30;;;;;;;4.07;1.60;;;11.30;99.90;;;;;;4917368;29;20576;-69
2022/11/09 17:53:58;;;;;;;5.50;1.83;;;11.30;99.90;;;;;;4917309;29;20213;-70
2022/11/09 17:56:25;;;;;;;7.57;1.93;;;11.20;99.90;;;;;;4916545;29;20238;-70
2022/11/09 17:58:52;;;;;;;9.27;3.97;;;11.30;99.90;;;;;;4917366;29;20205;-70
2022/11/09 18:01:20;;;;;;;17.10;6.20;;;11.30;99.90;;;;;;4917325;29;20669;-70
2022/11/09 18:03:47;;;;;;;9.37;3.50;;;11.30;99.90;;;;;;4917270;29;20317;-72
2022/11/09 18:06:16;;;;;;;8.70;3.30;;;11.30;99.90;;;;;;4917419;29;20229;-69
2022/11/09 18:08:45;;;;;;;5.80;2.10;;;11.30;99.90;;;;;;4917385;29;20209;-71
2022/11/09 18:11:12;;;;;;;8.40;2.30;;;11.20;99.90;;;;;;4917242;29;20685;-70
2022/11/09 18:13:40;;;;;;;7.07;1.93;;;11.20;99.90;;;;;;4917119;29;20239;-70
2022/11/09 18:16:07;;;;;;;5.80;1.53;;;11.20;99.90;;;;;;4917033;29;20267;-70
2022/11/09 18:18:34;;;;;;;4.27;2.00;;;11.20;99.90;;;;;;4917309;29;20216;-70
2022/11/09 18:21:06;;;;;;;4.00;1.73;;;11.20;99.90;;;;;;4916807;29;20241;-70
2022/11/09 18:23:33;;;;;;;4.13;1.30;;;11.30;99.90;;;;;;4916873;29;20272;-69
2022/11/09 18:26:02;;;;;;;7.07;3.57;;;11.30;99.90;;;;;;4916613;29;20248;-72
2022/11/09 18:28:29;;;;;;;7.10;2.40;;;11.30;99.90;;;;;;4916937;29;20214;-71
2022/11/09 18:31:00;;;;;;;5.67;1.77;;;11.30;99.90;;;;;;4916945;29;20209;-71
2022/11/09 18:33:27;;;;;;;3.43;1.40;;;11.30;99.90;;;;;;4916794;29;20209;-70
2022/11/09 18:35:58;;;;;;;9.37;3.27;;;11.30;99.90;;;;;;4916339;29;20697;-72
2022/11/09 18:38:25;;;;;;;6.93;2.40;;;11.30;99.90;;;;;;4916198;29;20587;-70
2022/11/09 18:41:01;;;;;;;3.57;1.77;;;11.30;99.90;;;;;;4916820;29;20213;-70
2022/11/09 18:43:29;;;;;;;8.17;2.93;;;11.30;99.90;;;;;;4916562;29;20210;-70
2022/11/09 18:45:57;;;;;;;7.03;2.33;;;11.30;99.90;;;;;;4916411;29;20236;-70
2022/11/09 18:48:24;;;;;;;4.93;1.87;;;11.30;99.90;;;;;;4916708;29;20300;-69
2022/11/09 18:50:52;;;;;;;3.30;1.40;;;11.40;99.90;;;;;;4916385;29;20224;-70
2022/11/09 18:53:19;;;;;;;3.67;1.50;;;11.40;99.90;;;;;;4916262;29;20206;-70
2022/11/09 18:55:46;;;;;;;7.17;2.10;;;11.40;99.90;;;;;;4916192;29;20247;-69
2022/11/09 18:58:15;;;;;;;3.93;1.77;;;11.40;99.90;;;;;;4913414;29;22350;-69
2022/11/09 19:00:42;;;;;;;3.87;1.70;;;11.40;99.90;;;;;;4902078;29;20232;-70
2022/11/09 19:03:12;;;;;;;8.07;2.33;;;11.40;99.90;;;;;;4901463;29;20569;-69
2022/11/09 19:05:39;;;;;;;4.53;1.60;;;11.40;99.90;;;;;;4899882;29;20724;-69
2022/11/09 19:08:06;;;;;;;7.10;2.27;;;11.40;99.90;;;;;;4901662;29;20696;-70
2022/11/09 19:10:35;;;;;;;4.33;1.70;;;11.40;99.90;;;;;;4907908;29;20208;-70
2022/11/09 19:13:03;;;;;;;4.23;1.40;;;11.40;99.90;;;;;;4906816;29;20593;-70
2022/11/09 19:15:33;;;;;;;5.83;1.30;;;11.40;99.90;;;;;;4912416;29;20237;-70
2022/11/09 19:18:00;;;;;;;4.27;1.50;;;11.30;99.90;;;;;;4902166;29;20274;-70
2022/11/09 19:20:27;;;;;;;4.50;1.00;;;11.30;99.90;;;;;;4903782;29;20575;-71
2022/11/09 19:22:54;;;;;;;2.80;0.90;;;11.30;99.90;;;;;;4900065;29;20212;-70
2022/11/09 19:25:21;;;;;;;3.27;1.47;;;11.40;99.90;;;;;;4909846;29;20230;-70
2022/11/09 19:27:48;;;;;;;2.77;1.20;;;11.50;99.90;;;;;;4907968;29;20210;-70
2022/11/09 19:30:15;;;;;;;5.00;1.40;;;11.50;99.90;;;;;;4903266;29;20212;-70
2022/11/09 19:32:43;;;;;;;2.53;1.10;;;11.50;99.90;;;;;;4904985;29;20207;-70
2022/11/09 19:35:10;;;;;;;3.43;1.10;;;11.50;99.90;;;;;;4900816;29;20716;-69
2022/11/09 19:37:36;;;;;;;4.47;1.53;;;11.60;99.90;;;;;;4901415;29;20720;-70
2022/11/09 19:40:04;;;;;;;8.50;3.27;;;11.50;99.90;;;;;;4907990;29;20762;-70
2022/11/09 19:42:30;;;;;;;5.20;1.40;;;11.50;99.90;;;;;;4909517;29;20228;-70
2022/11/09 19:44:57;;;;;;;5.80;1.30;;;11.60;99.90;;;;;;4905572;29;20211;-70
2022/11/09 19:47:24;;;;;;;3.40;1.63;;;11.50;99.90;;;;;;4907049;29;20209;-70
2022/11/09 19:49:52;;;;;;;5.37;2.23;;;11.40;99.90;;;;;;4909090;29;20228;-69
2022/11/09 19:52:19;;;;;;;4.67;1.50;;;11.50;99.90;;;;;;4909122;29;20222;-70
2022/11/09 19:54:46;;;;;;;4.27;1.60;;;11.60;99.90;;;;;;4906153;29;20210;-70
2022/11/09 19:57:13;;;;;;;1.80;1.10;;;11.60;99.90;;;;;;4910154;29;20242;-70
2022/11/09 19:59:39;;;;;;;6.13;1.47;;;11.60;99.90;;;;;;4905029;29;20657;-69
2022/11/09 20:02:06;;;;;;;2.90;1.00;;;11.50;99.90;;;;;;4912354;29;20214;-69
2022/11/09 20:04:33;;;;;;;5.63;1.77;;;11.60;99.90;;;;;;4905623;29;20210;-69
2022/11/09 20:07:01;;;;;;;3.33;1.20;;;11.60;99.90;;;;;;4908320;29;20237;-69
2022/11/09 20:09:30;;;;;;;3.43;1.00;;;11.60;99.90;;;;;;4909530;29;20662;-69
2022/11/09 20:14:41;;;;;;;5.20;1.13;;;11.60;99.90;;;;;;4912068;29;20229;-70
2022/11/09 20:17:08;;;;;;;3.27;1.13;;;11.60;99.90;;;;;;4908610;29;20697;-70
2022/11/09 20:19:35;;;;;;;2.73;0.80;;;11.50;99.90;;;;;;4910193;29;20560;-70
2022/11/09 20:22:04;;;;;;;5.63;1.07;;;11.40;99.90;;;;;;4908218;29;20203;-69
2022/11/09 20:24:30;;;;;;;2.33;1.10;;;11.50;99.90;;;;;;4914359;29;20252;-70
2022/11/09 20:26:57;;;;;;;2.73;1.20;;;11.50;99.90;;;;;;4914440;29;20233;-70
2022/11/09 20:29:24;;;;;;;2.60;0.80;;;11.50;99.90;;;;;;4908291;29;20238;-69
2022/11/09 20:31:51;;;;;;;4.27;1.53;;;11.60;99.90;;;;;;4911923;29;20212;-70
2022/11/09 20:34:18;;;;;;;3.77;1.00;;;11.70;99.90;;;;;;4910715;29;20210;-69
2022/11/09 20:36:44;;;;;;;4.40;1.00;;;11.70;99.90;;;;;;4905571;29;20237;-69
2022/11/09 20:39:13;;;;;;;4.47;0.83;;;11.70;99.90;;;;;;4907239;29;20226;-70
2022/11/09 20:41:39;;;;;;;2.93;0.80;;;11.60;99.90;;;;;;4905047;29;20662;-70
2022/11/09 20:44:07;;;;;;;1.87;0.57;;;11.70;99.90;;;;;;4908903;29;20227;-70
2022/11/09 20:46:33;;;;;;;1.77;0.80;;;11.60;99.90;;;;;;4913136;29;20249;-70
2022/11/09 20:49:00;;;;;;;4.27;1.00;;;11.70;99.90;;;;;;4913122;29;20226;-69
2022/11/09 20:51:27;;;;;;;3.83;0.90;;;11.60;99.90;;;;;;4908952;29;20569;-70
2022/11/09 20:53:54;;;;;;;2.27;1.23;;;11.60;99.90;;;;;;4910016;29;20213;-70
2022/11/09 20:56:22;;;;;;;3.53;0.70;;;11.60;99.90;;;;;;4911029;29;20712;-69
2022/11/09 20:58:49;;;;;;;3.07;0.80;;;11.60;99.90;;;;;;4913828;29;20216;-70
2022/11/09 21:01:18;;;;;;;1.37;0.77;;;11.60;99.90;;;;;;4909882;29;20269;-70
2022/11/09 21:03:45;;;;;;;3.60;1.20;;;11.60;99.90;;;;;;4911446;29;20211;-70
2022/11/09 21:06:13;;;;;;;3.30;1.07;;;11.60;99.90;;;;;;4902528;29;20321;-70
2022/11/09 21:08:43;;;;;;;3.67;1.17;;;11.50;99.90;;;;;;4910323;29;20214;-70
2022/11/09 21:11:11;;;;;;;3.37;0.90;;;11.40;99.90;;;;;;4912549;29;20206;-69
2022/11/09 21:13:42;;;;;;;4.07;0.87;;;11.40;99.90;;;;;;4913485;29;20210;-70
2022/11/09 21:16:11;;;;;;;3.63;1.07;;;11.30;99.90;;;;;;4908363;29;20234;-70
2022/11/09 21:18:38;;;;;;;3.43;1.13;;;11.30;99.90;;;;;;4907152;29;20210;-70
2022/11/09 21:21:06;;;;;;;5.47;1.00;;;11.30;99.90;;;;;;4910063;29;20216;-69
2022/11/09 21:31:48;;;;;;;3.53;1.07;;;11.30;99.90;;;;;;4914989;29;20221;-69
2022/11/09 21:34:15;;;;;;;1.80;0.80;;;11.30;99.90;;;;;;4913461;29;20237;-71
2022/11/09 21:36:43;;;;;;;6.27;0.90;;;11.20;99.90;;;;;;4911738;29;20241;-70
2022/11/09 21:39:10;;;;;;;4.60;1.03;;;11.20;99.90;;;;;;4906106;29;20607;-70
2022/11/09 21:41:38;;;;;;;5.50;1.13;;;11.20;99.90;;;;;;4909039;29;20210;-69
2022/11/09 21:44:07;;;;;;;3.23;0.90;;;11.20;99.90;;;;;;4916448;29;20677;-70
2022/11/09 21:46:35;;;;;;;2.47;0.90;;;11.20;99.90;;;;;;4903199;29;20238;-70
2022/11/09 21:49:03;;;;;;;3.27;0.73;;;11.20;99.90;;;;;;4904602;29;20210;-70
2022/11/09 21:51:30;;;;;;;5.37;1.07;;;11.20;99.90;;;;;;4905756;29;20225;-69
2022/11/09 21:53:56;;;;;;;3.47;0.80;;;11.30;99.90;;;;;;4908829;29;20515;-70
2022/11/09 21:56:23;;;;;;;2.37;0.70;;;11.20;99.90;;;;;;4909460;29;20319;-70
2022/11/09 21:58:50;;;;;;;4.43;0.90;;;11.20;99.90;;;;;;4902718;29;20225;-70
2022/11/09 22:01:19;;;;;;;2.70;0.90;;;11.10;99.90;;;;;;4898292;29;20207;-69
2022/11/09 22:03:46;;;;;;;1.30;0.80;;;11.10;99.90;;;;;;4897350;29;20210;-70
2022/11/09 22:06:13;;;;;;;6.33;1.37;;;11.10;99.90;;;;;;4897309;29;20249;-69
2022/11/09 22:08:40;;;;;;;4.07;0.93;;;11.00;99.90;;;;;;4897828;29;20214;-71
2022/11/09 22:11:09;;;;;;;2.50;1.00;;;11.00;99.90;;;;;;4897665;29;20225;-69
2022/11/09 22:16:24;;;;;;;4.33;1.00;;;10.90;99.90;;;;;;4905656;29;20241;-69
2022/11/09 22:21:35;;;;;;;4.37;0.70;;;11.10;99.90;;;;;;4916312;29;20213;-69
2022/11/09 22:24:03;;;;;;;3.50;1.53;;;11.00;99.90;;;;;;4916505;29;20568;-70
2022/11/09 22:26:31;;;;;;;6.80;0.80;;;11.00;99.90;;;;;;4914220;29;20225;-70
2022/11/09 22:28:59;;;;;;;6.00;1.90;;;10.90;99.90;;;;;;4916291;29;20198;-70
2022/11/09 22:31:27;;;;;;;8.43;1.37;;;10.90;99.90;;;;;;4915987;29;20573;-70
2022/11/09 22:33:54;;;;;;;3.73;1.13;;;11.00;99.90;;;;;;4916167;29;20209;-70
2022/11/09 22:36:22;;;;;;;4.60;0.93;;;11.00;99.90;;;;;;4915958;29;20308;-70
2022/11/09 22:38:49;;;;;;;4.07;0.97;;;11.10;99.90;;;;;;4916289;29;20301;-71
2022/11/09 22:41:16;;;;;;;4.60;0.93;;;11.00;99.90;;;;;;4915982;29;20206;-70
2022/11/09 22:43:44;;;;;;;3.97;1.00;;;11.00;99.90;;;;;;4916159;29;20586;-70
2022/11/09 22:46:13;;;;;;;5.13;1.03;;;11.10;99.90;;;;;;4916433;29;20226;-70
2022/11/09 22:48:43;;;;;;;5.10;1.40;;;11.10;99.90;;;;;;4915111;29;20210;-70
2022/11/09 22:51:12;;;;;;;4.93;0.67;;;11.10;99.90;;;;;;4916687;29;20228;-70
2022/11/09 22:53:39;;;;;;;5.37;1.20;;;11.00;99.90;;;;;;4916554;29;20692;-71
2022/11/09 22:56:07;;;;;;;3.83;1.00;;;11.10;99.90;;;;;;4917006;29;20693;-70
2022/11/09 22:58:34;;;;;;;8.20;2.20;;;11.10;99.90;;;;;;4916614;29;20249;-68
